AREA preflight bulletin
Updated "live" 20 Oct 2018, 23:12

back to the map




METAR og TAF


NARSARSUAQ
  AKTUEL BGBW 202250Z AUTO 05002KT 9999NDV NCD M05/M14 Q1008=
  TAF 9 timer BGBW 201557Z 2016/2019 24008KT 9999 BKN045 TEMPO 2017/2019 BKN030=

QAQORTOQ
  AKTUEL BGJH 202250Z AUTO VRB05KT //// ///////// M05/M15 Q1009=

PAAMIUT
  AKTUEL BGPT 202250Z AUTO 01002KT 9999NDV NCD M04/M10 Q1010=
  TAF 9 timer BGPT 201755Z 2017/2019 CNL=

NARSAQ
  AKTUEL BGNS 202250Z AUTO 01010KT //// ///////// M04/M18 Q1009=

NANORTALIK
  AKTUEL BGNN 202250Z AUTO 33011KT 300V360 //// ///////// M01/M10 Q1009=

NUUK
  AKTUEL BGGH 202250Z AUTO 06013KT 9999NDV FEW200/// M08/M14 Q1009=
  TAF 9 timer BGGH 201859Z 2019/2020 CNL=

KANGERLUSSUAQ
  AKTUEL BGSF 202250Z AUTO 07007KT 9999NDV OVC055/// M10/M13 Q1010=
  TAF 24 timer BGSF 202300Z 2100/2119 07008KT 9999 BKN060 TEMPO 2100/2103 6000 -SN BKN020 TEMPO 2103/2111 BKN035 BECMG 2111/2113 FEW060=


SIGMETS:

SONDRESTROM FIR
  SIGMET BGGL SIGMET 11 VALID 202215/210215 BGSF- BGGL NUUK FIR SEV TURB FCST AT 2215Z WI N5936 W04307 - N5952 W04509 - N6559 W04203 - N6531 W03847 - N5936 W04307 SFC/FL090 STNR NC=

SNOWTAM:

ICAO
BGSF (KANGERLUSSUAQ)

valid from:
1810201845

Notam_id:
0030

SNOWTAM 0030 A)BGSF B)10201845 C)09 F)4/4/4 H)5/5/5 N)A B C D/4/GOOD R)N E W HELIPAD/4/GOOD T)MEASURED FRICTION COEFFICIENTS 60/65/70 TAP, RUNWAY CONTAMINATION 100 PERCENT 1MM DRY SNOW



NOTAM/SNOWTAM for operationel use has to be confirmed with the
nearest AIS Briefing Office prior to a flight.

ICAO
BGBW (NARSARSUAQ)

FIR
BGGL

Notam_id:
BGA0521/18

valid from:
1810151656

E) REF AD-2 RNAV (GNSS) Y RWY 06-1 DUE TO TERRAIN WARNING REPORTS ON FINAL, LNAV OCA(H) INCREASED. CAT A INCREASED TO 1800(1688) FT FOR ALL CLIMB GRADIENTS. CAT B INCREASED TO 1800(1688) FT FOR ALL CLIMB GRADIENTS. CAT C INCREASED TO 1800(1688) FT FOR ALL CLIMB GRADIENTS.

valid to:
1811161800


Replacing:
BGA0443/18

ICAO
BGBW (NARSARSUAQ)

FIR
BGGL

Notam_id:
BGA0522/18

valid from:
1810151709

E) REF AD-2 RNAV (GNSS) Z RWY 06-1 DUE TO TERRAIN WARNING REPORTS ON FINAL, LNAV OCA(H) INCREASED. CAT A INCREASED TO 1800(1688) FT FOR ALL CLIMB GRADIENTS. CAT B INCREASED TO 1800(1688) FT FOR ALL CLIMB GRADIENTS.

valid to:
1811161800


Replacing:
BGA0444/18

ICAO
BGBW (NARSARSUAQ)

FIR
BGGL

Notam_id:
BGA0538/18

valid from:
1810161807

E) SEA RESCUE SERVICE NOT AVAILABLE DUE TO ICE.

valid to:
1905311900




ICAO
BGJH (QAQORTOQ)

FIR
BGGL

Notam_id:
BGC0060/18

valid from:
1810110000

E) TRIGGER NOTAM - PERM AIP AIRAC AMDT 09/18 WEF 11 OCT 2018. CHANGE TO TEL AND E-MAIL. FAX WITHDRAWN.

valid to:
1810242359




ICAO
BGNS (NARSAQ)

FIR
BGGL

Notam_id:
BGC0059/18

valid from:
1810110000

E) TRIGGER NOTAM - PERM AIP AIRAC AMDT 09/18 WEF 11 OCT 2018. CHANGE TO TEL AND E-MAIL.

valid to:
1810242359




ICAO
BGNN (NANORTALIK)

FIR
BGGL

Notam_id:
BGC0058/18

valid from:
1810110000

E) TRIGGER NOTAM - PERM AIP AIRAC AMDT 09/18 WEF 11 OCT 2018. CHANGE TO TEL AND E-MAIL. FAX WITHDRAWN.

valid to:
1810242359




ICAO
BGGL (SONDRESTROM FIR)

FIR
BGGL

Notam_id:
BGA0473/18

valid from:
1810010452

E) CHECKLIST YEAR=2017 0269 YEAR=2018 0199 0383 0442 0443 0444 0445 0451 0468 0469 0470 0471 0472 LATEST PUBLICATIONS AIP AIRAC AMDT IFR 009/2018 EFFECTIVE DATE 11 OCT 18 AIP AMDT IFR 003/2018 EFFECTIVE DATE 15 MAR 18 AIP SUP IFR 006/2018 EFFECTIVE DATE 18 JUN 18 AIC IFR A003/2018 EFFECTIVE DATE 29 AUG 18

valid to:
1811010452EST


Replacing:
BGA0405/18

ICAO
BGGL (SONDRESTROM FIR)

FIR
BGGL

Notam_id:
BGB0782/18

valid from:
1810010453

E) CHECKLIST YEAR=2017 0740 0930 YEAR=2018 0605 0618 0622 0631 0659 0696 0697 0698 0699 0704 0728 0750 0759 0760 0772 0773 0776 0777 0781 LATEST PUBLICATIONS AIP AIRAC AMDT IFR 009/2018 EFFECTIVE DATE 11 OCT 18 AIP AMDT IFR 003/2018 EFFECTIVE DATE 15 MAR 18 AIP SUP IFR 006/2018 EFFECTIVE DATE 18 JUN 18 AIC IFR A003/2018 EFFECTIVE DATE 29 AUG 18

valid to:
1811010453EST


Replacing:
BGB0731/18

ICAO
BGGL (SONDRESTROM FIR)

FIR
BGGL

Notam_id:
BGC0063/18

valid from:
1810010453

E) CHECKLIST YEAR=2018 0058 0059 0060 LATEST PUBLICATIONS AIP AIRAC AMDT IFR 009/2018 EFFECTIVE DATE 11 OCT 18 AIP AMDT IFR 003/2018 EFFECTIVE DATE 15 MAR 18 AIP SUP IFR 006/2018 EFFECTIVE DATE 18 JUN 18 AIC IFR A003/2018 EFFECTIVE DATE 29 AUG 18

valid to:
1811010453EST


Replacing:
BGC0062/18

ICAO
BGGL (SONDRESTROM FIR)

FIR
BGGL

Notam_id:
BGA0486/18

valid from:
1811080000

E) AIP AIRAC AMDT EFFECTIVE DATE 08 NOV 2018: NIL.

valid to:
1811212359




ICAO
BGGL (SONDRESTROM FIR)

FIR
BGGL

Notam_id:
BGA0199/18

valid from:
1805310935

E) GREENLAND AND ADJACENT WATERS ARE CONSIDERED HOSTILE AREAS BY THE CIVIL AVIATION AUTHORITY (TBST). THREE MAJOR REASONS CONTRIBUTE TO DEFINING THE AREA AS HOSTILE: A SAFE FORCED LANDING CANNOT BE ACCOMPLISHED BECAUSE THE SURFACE IS INADEQUATE. THE HELICOPTER OCCUPANTS CANNOT BE ADEQUATELY PROTECTED FROM THE ELEMENTS. SEARCH AND RESCUE RESPONSE/CAPABILITY ARE NOT PROVIDED CONSISTENT WITH ANTICIPATED EXPOSURE.

valid to:
PERM




ICAO
BGGH (NUUK)

FIR
BGGL

Notam_id:
BGB0786/18

valid from:
1810011932

E) BGGH AFIS FREQ 119.100 MHZ NO COVERAGE IN SECTOR BETWEEN 060 DEG MAG AND 210 DEG MAG BELOW FL100.

valid to:
1901311900EST


Replacing:
BGB0781/18

ICAO
BGGH (NUUK)

FIR
BGGL

Notam_id:
BGB0930/17

valid from:
1712181907

E) ERROR IN CHART FOR RNAV (GNSS) APPROACH RWY 23. WITH REF AIP GREENLAND AD 2-BGGH RNAV (GNSS) RWY 23-1. NEW OCA(H) LNAV/VNAV CLIMB 2.5 PERCENT CAT A TO READ 1310 (1029) INSTEAD OF 1230. NEW OCA(H) LNAV/VNAV CLIMB 2.5 PERCENT CAT B TO READ 1340 (1059) INSTEAD OF 1250. NEW OCA(H) LNAV/VNAV CLIMB 5.0 PERCENT CAT A TO READ 1300 (1019) INSTEAD OF 1070. NEW OCA(H) LNAV/VNAV CLIMB 5.0 PERCENT CAT B TO READ 1320 (1039) INSTEAD OF 1110. NEW OCA(H) LNAV CLIMB 5.0 PERCENT CAT A TO READ 1150 (869) IN-STEAD OF 1130. NEW OCA(H) LNAV CLIMB 5.0 PERCENT CAT B TO READ 1240 (959) INSTEAD OF 1230.

valid to:
PERM




ICAO
BGGH (NUUK)

FIR
BGGL

Notam_id:
BGB0808/18

valid from:
1810111130

E) CRANE RAISED AT PSN 641124N0514021W (AIR GREENLAND HANGAR AREA) TOP 82FT AGL

valid to:
1812201900EST




ICAO
BGSF (KANGERLUSSUAQ)

FIR
BGGL

Notam_id:
BGA0541/18

valid from:
1810191025

E) APPROACH LIGHTS, PAPI LIGHTS AND RUNWAY EDGE LIGHTS ARE SET ON 10 PCT INTENSITY. 20 MINUTES PRIOR NOTICE REQUIRED TO CHANGE SETTING.

valid to:
1810312359




ICAO
BGSF (KANGERLUSSUAQ)

FIR
BGGL

Notam_id:
BGA0445/18

valid from:
1809131554

E) BGSF FBO E-MAIL ADDRESS: BGSF(AT)MIT.GL REF AIP GRL/AD 2 - BGSF, GEN 3.3 - 2 AND GEN 3.4 - 3.

valid to:
PERM





Copyright Naviair   2003-2016